Login to view products.  
Thursday, February 22, 2018 (02:36 UTC)
Fujairah International Airport
ICAO Code: OMFJ
IATA Code: FJR
  • METAR OMFJ 220200Z 30005KT 6000 NSC 20/16 Q1011 RMK A2986=
  • TAF OMFJ 212300Z 2200/2306 VRB03KT 6000 NSC TEMPO 2200/2204 29006KT 4000 HZ FEW025 BECMG 2205/2207 09008KT FEW030 BECMG 2115/2117 22006KT=